Time;durP1;ratioP1;P1;durP2;ratioP2;P2;SDS_P1;SDS_P2;PMS_P1;PMS_P2;Temp;Humidity;BMP_temperature;BMP_pressure;BME280_temperature;BME280_humidity;BME280_pressure;Samples;Min_cycle;Max_cycle;Signal;HPM_P1;HPM_P2
2022/03/10 00:00:53;;;;;;;;;44.50;37.00;;;;;10.87;50.04;101670.16;4976108;28;45333;-43
2022/03/10 00:03:18;;;;;;;;;46.75;33.25;;;;;10.86;49.74;101680.91;4976203;28;45395;-43
2022/03/10 00:05:44;;;;;;;;;43.00;34.75;;;;;10.83;49.81;101676.69;4975636;28;45441;-43
2022/03/10 00:08:09;;;;;;;;;45.25;37.50;;;;;10.85;49.74;101679.22;4975256;28;45463;-42
2022/03/10 00:10:35;;;;;;;;;52.50;39.25;;;;;10.83;49.86;101678.47;4975912;28;45864;-42
2022/03/10 00:13:00;;;;;;;;;34.00;31.00;;;;;10.81;49.67;101677.78;4975654;28;45358;-42
2022/03/10 00:15:25;;;;;;;;;34.50;29.75;;;;;10.79;49.87;101677.03;4975171;28;46867;-42
2022/03/10 00:17:52;;;;;;;;;45.50;33.50;;;;;10.78;49.63;101675.34;4975399;28;45389;-42
2022/03/10 00:20:18;;;;;;;;;45.50;36.25;;;;;10.75;49.71;101671.16;4975297;28;45268;-42
2022/03/10 00:22:46;;;;;;;;;41.75;37.25;;;;;10.74;50.00;101669.44;4975622;28;45470;-43
2022/03/10 00:25:13;;;;;;;;;42.50;31.00;;;;;10.70;49.59;101671.53;4975026;28;45433;-42
2022/03/10 00:27:38;;;;;;;;;39.00;34.00;;;;;10.67;49.64;101671.78;4975027;28;45622;-42
2022/03/10 00:30:04;;;;;;;;;38.50;35.50;;;;;10.57;50.20;101657.50;4975144;28;45777;-43
2022/03/10 00:32:30;;;;;;;;;50.50;39.00;;;;;10.60;50.13;101675.88;4975229;28;45423;-42
2022/03/10 00:34:55;;;;;;;;;44.75;33.25;;;;;10.56;49.84;101671.78;4975273;28;46013;-42
2022/03/10 00:37:20;;;;;;;;;41.50;32.25;;;;;10.56;50.16;101674.44;4973877;28;45382;-42
2022/03/10 00:39:46;;;;;;;;;40.75;36.25;;;;;10.54;50.26;101680.88;4975295;28;45388;-41
2022/03/10 00:42:11;;;;;;;;;43.50;34.00;;;;;10.54;50.28;101688.84;4975436;28;45439;-43
2022/03/10 00:44:36;;;;;;;;;46.75;36.00;;;;;10.53;50.61;101680.00;4975210;28;46209;-42
2022/03/10 00:47:02;;;;;;;;;41.75;34.50;;;;;10.50;49.98;101674.94;4974645;28;45686;-42
2022/03/10 00:49:27;;;;;;;;;44.00;36.00;;;;;10.52;50.19;101680.13;4975021;28;45440;-41
2022/03/10 00:51:53;;;;;;;;;34.75;29.25;;;;;10.48;49.99;101684.84;4975200;28;45284;-41
2022/03/10 00:54:18;;;;;;;;;41.25;33.00;;;;;10.43;49.79;101682.56;4975139;28;47001;-44
2022/03/10 00:56:44;;;;;;;;;40.25;35.25;;;;;10.41;50.48;101681.00;4975168;28;45201;-42
2022/03/10 00:59:09;;;;;;;;;35.25;31.25;;;;;10.38;50.18;101691.91;4975323;28;45278;-43
2022/03/10 01:01:34;;;;;;;;;44.25;34.50;;;;;10.35;50.45;101690.31;4975381;28;45332;-42
2022/03/10 01:04:00;;;;;;;;;40.00;31.25;;;;;10.33;50.52;101686.09;4974860;28;46255;-41
2022/03/10 01:06:25;;;;;;;;;39.25;34.75;;;;;10.30;50.60;101679.19;4975073;28;45444;-43
2022/03/10 01:08:50;;;;;;;;;46.25;33.25;;;;;10.28;50.27;101680.28;4975146;28;45291;-42
2022/03/10 01:11:16;;;;;;;;;44.50;36.25;;;;;10.25;50.34;101670.75;4975092;28;45576;-42
2022/03/10 01:13:41;;;;;;;;;41.00;31.00;;;;;10.27;50.65;101683.91;4975088;28;45940;-44
2022/03/10 01:16:07;;;;;;;;;44.25;34.75;;;;;10.21;50.30;101683.41;4974760;28;45432;-43
2022/03/10 01:18:32;;;;;;;;;36.25;29.50;;;;;10.24;50.46;101696.50;4974733;28;45395;-42
2022/03/10 01:20:57;;;;;;;;;36.50;30.00;;;;;10.19;50.53;101682.66;4974720;28;45402;-43
2022/03/10 01:23:23;;;;;;;;;43.00;32.00;;;;;10.21;50.46;101690.53;4974465;28;46360;-43
2022/03/10 01:25:48;;;;;;;;;38.25;33.25;;;;;10.20;50.03;101688.84;4974309;28;45378;-42
2022/03/10 01:28:14;;;;;;;;;40.50;31.50;;;;;10.17;50.38;101689.94;4974392;28;45704;-43
2022/03/10 01:30:39;;;;;;;;;35.25;31.25;;;;;10.16;50.27;101682.09;4974736;28;45307;-43
2022/03/10 01:33:04;;;;;;;;;42.25;33.25;;;;;10.13;50.43;101680.50;4974205;28;46168;-44
2022/03/10 01:35:30;;;;;;;;;41.75;34.25;;;;;10.11;50.41;101673.59;4974333;28;45398;-43
2022/03/10 01:37:55;;;;;;;;;35.25;29.25;;;;;10.07;50.57;101681.00;4974445;28;45347;-43
2022/03/10 01:40:21;;;;;;;;;41.75;34.75;;;;;10.04;50.61;101680.38;4974686;28;45383;-43
2022/03/10 01:42:47;;;;;;;;;39.50;30.00;;;;;10.00;50.35;101674.47;4973978;28;45465;-44
2022/03/10 01:45:13;;;;;;;;;39.25;32.00;;;;;9.97;50.65;101672.03;4974180;28;46259;-43
2022/03/10 01:47:39;;;;;;;;;35.75;28.00;;;;;9.87;50.85;101671.91;4974362;28;45343;-43
2022/03/10 01:50:10;;;;;;;;;36.75;30.00;;;;;9.92;50.55;101674.22;4972797;28;45674;-43
2022/03/10 01:52:36;;;;;;;;;36.25;27.50;;;;;9.94;50.97;101677.59;4974261;28;46064;-42
2022/03/10 01:55:03;;;;;;;;;39.50;33.50;;;;;9.85;50.89;101668.50;4974140;28;45297;-42
2022/03/10 01:57:29;;;;;;;;;38.25;30.75;;;;;9.86;50.39;101680.00;4974719;28;45492;-42
2022/03/10 01:59:54;;;;;;;;;44.25;32.00;;;;;9.73;50.65;101667.69;4975881;28;45488;-44
2022/03/10 02:02:20;;;;;;;;;38.00;37.50;;;;;9.83;51.19;101677.59;4976918;28;47307;-43
2022/03/10 02:04:45;;;;;;;;;35.75;29.75;;;;;9.66;50.78;101657.63;4977061;28;45204;-42
2022/03/10 02:10:16;;;;;;;;;40.75;33.75;;;;;9.77;51.35;101670.91;4976854;28;46053;-43
2022/03/10 02:12:41;;;;;;;;;47.50;35.75;;;;;9.70;51.38;101661.75;4976569;28;45706;-42
2022/03/10 02:17:55;;;;;;;;;33.50;26.25;;;;;9.67;51.42;101676.09;4977212;28;45419;-43
2022/03/10 02:20:21;;;;;;;;;36.75;29.25;;;;;9.62;50.67;101667.66;4977021;28;45327;-41
2022/03/10 02:22:46;;;;;;;;;42.50;31.50;;;;;9.63;50.09;101669.34;4978186;28;46181;-43
2022/03/10 02:25:15;;;;;;;;;38.75;35.00;;;;;9.61;50.56;101671.28;4976944;28;45398;-43
2022/03/10 02:27:41;;;;;;;;;37.00;29.50;;;;;9.58;51.39;101675.97;4977238;28;45319;-44
2022/03/10 02:30:07;;;;;;;;;45.25;32.00;;;;;9.55;50.58;101668.22;4977049;28;45340;-43
2022/03/10 02:32:32;;;;;;;;;44.75;34.75;;;;;9.54;50.86;101670.03;4976778;28;47284;-42
2022/03/10 02:34:58;;;;;;;;;39.25;31.75;;;;;9.53;50.80;101665.72;4976636;28;45354;-48
2022/03/10 02:37:23;;;;;;;;;40.50;30.50;;;;;9.52;50.62;101669.31;4976486;28;45747;-43
2022/03/10 02:39:49;;;;;;;;;39.50;32.75;;;;;9.50;50.19;101665.94;4977015;28;45705;-42
2022/03/10 02:42:14;;;;;;;;;37.75;32.75;;;;;9.48;50.11;101666.06;4976628;28;45383;-44
2022/03/10 02:44:44;;;;;;;;;42.75;35.50;;;;;9.46;50.20;101667.13;4976637;28;45507;-43
2022/03/10 02:47:10;;;;;;;;;49.75;34.75;;;;;9.45;50.94;101668.09;4976721;28;45422;-43
2022/03/10 02:49:38;;;;;;;;;45.25;33.00;;;;;9.42;51.01;101671.81;4976548;28;45569;-42
2022/03/10 02:52:03;;;;;;;;;37.75;34.25;;;;;9.42;50.84;101673.63;4976043;28;45291;-42
2022/03/10 02:54:30;;;;;;;;;45.75;33.25;;;;;9.43;51.23;101673.50;4976122;28;45397;-42
2022/03/10 02:56:56;;;;;;;;;32.25;30.00;;;;;9.41;50.55;101680.75;4976461;28;45379;-42
2022/03/10 02:59:21;;;;;;;;;37.50;30.00;;;;;9.40;50.82;101678.22;4976445;28;45430;-42
2022/03/10 03:01:47;;;;;;;;;35.25;30.75;;;;;9.38;50.74;101677.47;4976311;28;45349;-42
2022/03/10 03:04:12;;;;;;;;;41.25;31.75;;;;;9.38;51.13;101680.13;4976380;28;45329;-40
2022/03/10 03:06:37;;;;;;;;;44.25;31.50;;;;;9.36;51.09;101677.59;4976423;28;45386;-41
2022/03/10 03:09:03;;;;;;;;;32.75;26.75;;;;;9.37;51.37;101684.59;4976851;28;45406;-44
2022/03/10 03:11:28;;;;;;;;;42.25;33.75;;;;;9.31;51.55;101668.28;4975871;28;47197;-43
2022/03/10 03:13:54;;;;;;;;;39.00;33.75;;;;;9.33;51.39;101677.84;4976533;28;45470;-43
2022/03/10 03:16:19;;;;;;;;;42.50;36.75;;;;;9.34;51.65;101682.19;4976352;28;45350;-42
2022/03/10 03:18:45;;;;;;;;;49.50;33.00;;;;;9.32;52.13;101688.59;4976581;28;45430;-42
2022/03/10 03:21:10;;;;;;;;;38.50;33.00;;;;;9.32;51.36;101692.06;4975988;28;45374;-43
2022/03/10 03:23:35;;;;;;;;;41.75;36.25;;;;;9.31;52.18;101690.38;4976516;28;45252;-42
2022/03/10 03:26:01;;;;;;;;;38.00;32.50;;;;;9.31;51.81;101687.72;4976187;28;45394;-42
2022/03/10 03:28:26;;;;;;;;;40.75;32.75;;;;;9.28;52.25;101695.94;4976337;28;45388;-43
2022/03/10 03:30:51;;;;;;;;;44.75;35.50;;;;;9.28;52.50;101690.63;4977117;28;45461;-41
2022/03/10 03:33:17;;;;;;;;;39.00;32.25;;;;;9.27;51.90;101690.72;4975742;28;45387;-42
2022/03/10 03:35:43;;;;;;;;;35.25;32.75;;;;;9.27;51.79;101696.03;4976444;28;45271;-43
2022/03/10 03:38:09;;;;;;;;;45.50;35.75;;;;;9.27;52.15;101703.97;4976058;28;45470;-42
2022/03/10 03:40:35;;;;;;;;;46.50;37.75;;;;;9.21;52.39;101694.69;4975675;28;46100;-41
2022/03/10 03:43:00;;;;;;;;;40.50;35.75;;;;;9.22;52.79;101699.88;4975474;28;45399;-41
2022/03/10 03:45:27;;;;;;;;;50.00;38.50;;;;;9.18;52.25;101703.72;4975690;28;45433;-42
2022/03/10 03:47:53;;;;;;;;;43.25;36.25;;;;;9.14;52.65;101699.63;4976046;28;45499;-43
2022/03/10 03:50:18;;;;;;;;;42.75;34.00;;;;;9.13;52.27;101699.72;4975256;28;46268;-43
2022/03/10 03:52:44;;;;;;;;;33.75;29.50;;;;;9.10;52.97;101700.81;4975345;28;45277;-42
2022/03/10 03:55:09;;;;;;;;;52.25;38.75;;;;;9.10;52.69;101700.81;4975575;28;45413;-40
2022/03/10 03:57:34;;;;;;;;;34.25;32.25;;;;;9.11;51.65;101707.81;4975798;28;45378;-43
2022/03/10 04:00:01;;;;;;;;;52.75;33.50;;;;;9.06;52.01;101704.66;4975423;28;46327;-41
2022/03/10 04:02:26;;;;;;;;;48.75;38.25;;;;;9.00;52.55;101697.97;4975292;28;45295;-42
2022/03/10 04:04:52;;;;;;;;;39.50;34.00;;;;;9.04;52.45;101714.50;4975579;28;45429;-42
2022/03/10 04:07:18;;;;;;;;;46.25;34.50;;;;;9.03;52.26;101706.69;4975458;28;45280;-42
2022/03/10 04:09:43;;;;;;;;;46.00;35.00;;;;;9.01;52.60;101709.41;4975307;28;46008;-46
2022/03/10 04:12:09;;;;;;;;;43.25;32.25;;;;;9.00;52.19;101707.72;4975341;28;45404;-42
2022/03/10 04:14:34;;;;;;;;;39.75;30.75;;;;;8.99;52.33;101700.75;4975732;28;45835;-44
2022/03/10 04:16:59;;;;;;;;;44.00;33.25;;;;;8.97;53.06;101703.53;4975666;28;45486;-43
2022/03/10 04:19:25;;;;;;;;;38.50;32.75;;;;;8.95;52.58;101704.59;4975345;28;45413;-42
2022/03/10 04:21:50;;;;;;;;;47.00;36.25;;;;;8.97;53.00;101721.22;4974523;28;45438;-41
2022/03/10 04:24:16;;;;;;;;;45.25;39.25;;;;;8.94;52.44;101716.16;4975095;28;45362;-42
2022/03/10 04:26:42;;;;;;;;;43.25;35.75;;;;;8.90;52.42;101710.22;4975442;28;45706;-42
2022/03/10 04:29:07;;;;;;;;;36.50;32.00;;;;;8.92;53.46;101718.06;4974999;28;47031;-42
2022/03/10 04:31:33;;;;;;;;;43.25;32.00;;;;;8.91;53.00;101716.38;4975133;28;45332;-43
2022/03/10 04:33:58;;;;;;;;;39.00;32.50;;;;;8.88;53.20;101725.41;4975169;28;45449;-42
2022/03/10 04:36:23;;;;;;;;;41.25;31.00;;;;;8.88;53.20;101725.41;4975412;28;45324;-42
2022/03/10 04:38:50;;;;;;;;;37.25;34.25;;;;;8.84;52.06;101723.09;4974790;28;46110;-44
2022/03/10 04:41:16;;;;;;;;;45.75;31.00;;;;;8.86;53.12;101726.47;4975109;28;45433;-42
2022/03/10 04:43:41;;;;;;;;;43.75;31.75;;;;;8.84;53.54;101723.94;4974818;28;45340;-41
2022/03/10 04:46:06;;;;;;;;;42.50;35.50;;;;;8.83;52.67;101726.69;4977211;28;45236;-42
2022/03/10 04:48:32;;;;;;;;;36.50;33.50;;;;;8.84;52.43;101726.56;4974958;28;45974;-43
2022/03/10 04:50:57;;;;;;;;;48.25;36.25;;;;;8.85;52.30;101724.75;4974647;28;45405;-42
2022/03/10 04:53:22;;;;;;;;;48.00;40.00;;;;;8.80;53.26;101724.25;4974996;28;45659;-41
2022/03/10 04:55:48;;;;;;;;;44.75;32.00;;;;;8.78;52.86;101721.72;4975076;28;45350;-42
2022/03/10 04:58:14;;;;;;;;;46.00;37.50;;;;;8.73;52.87;101719.41;4974683;28;47128;-41
2022/03/10 05:00:39;;;;;;;;;45.50;37.00;;;;;8.72;53.74;101720.38;4974895;28;45324;-41
2022/03/10 05:03:05;;;;;;;;;44.75;36.50;;;;;8.70;53.57;101722.28;4974727;28;45402;-42
2022/03/10 05:05:30;;;;;;;;;39.50;31.50;;;;;8.69;52.69;101728.53;4975006;28;45268;-49
2022/03/10 05:07:56;;;;;;;;;33.50;29.25;;;;;8.66;53.36;101730.56;4974480;28;46016;-42
2022/03/10 05:10:21;;;;;;;;;46.25;38.00;;;;;8.60;53.09;101726.56;4974683;28;45446;-42
2022/03/10 05:12:52;;;;;;;;;38.25;30.00;;;;;8.54;53.38;101721.69;4974736;28;45252;-42
2022/03/10 05:15:26;;;;;;;;;42.75;34.75;;;;;8.50;53.58;101722.84;4974818;28;45425;-41
2022/03/10 05:17:52;;;;;;;;;40.50;28.50;;;;;8.48;53.35;101722.97;4974339;28;46182;-41
2022/03/10 05:20:18;;;;;;;;;40.25;29.25;;;;;8.47;53.54;101715.13;4974270;28;45248;-42
2022/03/10 05:22:49;;;;;;;;;41.00;34.50;;;;;8.43;53.85;101711.00;4974166;28;45408;-42
2022/03/10 05:25:15;;;;;;;;;48.00;34.25;;;;;8.39;54.40;101709.53;4974761;28;45258;-41
2022/03/10 05:27:42;;;;;;;;;42.25;29.75;;;;;8.40;54.45;101711.22;4974132;28;46109;-42
2022/03/10 05:30:08;;;;;;;;;35.75;30.75;;;;;8.24;54.16;101696.34;4974095;28;45339;-42
2022/03/10 05:32:34;;;;;;;;;45.25;30.75;;;;;8.18;54.01;101698.59;4974383;28;45356;-41
2022/03/10 05:35:03;;;;;;;;;44.75;30.75;;;;;8.24;54.60;101711.41;4972987;28;45356;-42
2022/03/10 05:37:29;;;;;;;;;39.00;30.00;;;;;8.29;54.34;101716.38;4974006;28;46490;-42
2022/03/10 05:39:54;;;;;;;;;40.50;32.75;;;;;8.28;53.69;101712.06;4974141;28;45645;-42
2022/03/10 05:42:20;;;;;;;;;46.75;30.00;;;;;8.25;55.19;101718.41;4972928;28;45347;-42
2022/03/10 05:44:45;;;;;;;;;32.00;27.00;;;;;8.21;54.92;101716.91;4974218;28;45442;-43
2022/03/10 05:47:10;;;;;;;;;44.25;35.25;;;;;8.19;54.02;101722.34;4973966;28;45921;-43
2022/03/10 05:49:36;;;;;;;;;43.75;35.25;;;;;8.14;55.13;101716.53;4973939;28;45428;-43
2022/03/10 05:52:03;;;;;;;;;35.75;30.50;;;;;8.12;54.31;101723.72;4974304;28;45233;-42
2022/03/10 05:54:28;;;;;;;;;36.00;30.75;;;;;8.09;54.94;101720.44;4973953;28;45351;-42
2022/03/10 05:56:53;;;;;;;;;31.75;28.25;;;;;8.08;54.38;101718.75;4973590;28;47426;-42
2022/03/10 05:59:19;;;;;;;;;49.50;33.00;;;;;8.07;55.02;101723.19;4973984;28;45288;-43
2022/03/10 06:01:49;;;;;;;;;45.75;34.25;;;;;8.07;55.07;101717.91;4973939;28;45809;-42
2022/03/10 06:04:14;;;;;;;;;32.50;24.00;;;;;8.06;55.12;101725.97;4974159;28;45414;-49
2022/03/10 06:06:40;;;;;;;;;39.50;34.75;;;;;8.05;55.77;101730.41;4973610;28;46102;-42
2022/03/10 06:09:05;;;;;;;;;38.75;33.00;;;;;8.03;56.13;101728.81;4973516;28;45366;-43
2022/03/10 06:11:31;;;;;;;;;40.50;32.25;;;;;8.02;56.09;101730.63;4973838;28;45257;-41
2022/03/10 06:13:56;;;;;;;;;42.25;30.00;;;;;8.03;55.98;101726.16;4973633;28;45516;-41
2022/03/10 06:16:21;;;;;;;;;29.00;22.25;;;;;7.99;55.69;101721.06;4973631;28;45371;-43
2022/03/10 06:18:47;;;;;;;;;46.25;37.50;;;;;7.91;55.93;101696.91;4973558;28;45284;-42
2022/03/10 06:21:12;;;;;;;;;34.50;33.75;;;;;8.07;55.91;101728.50;4973920;28;45239;-42
2022/03/10 06:23:38;;;;;;;;;44.50;34.75;;;;;8.12;55.31;101728.16;4973748;28;45192;-43
2022/03/10 06:26:03;;;;;;;;;38.25;32.50;;;;;8.05;55.12;101717.16;4973424;28;46183;-42
2022/03/10 06:28:30;;;;;;;;;35.00;28.00;;;;;8.11;55.13;101729.97;4973292;28;45284;-43
2022/03/10 06:30:56;;;;;;;;;37.25;31.50;;;;;8.08;55.29;101721.38;4973396;28;45494;-44
2022/03/10 06:33:21;;;;;;;;;44.50;30.75;;;;;8.14;55.42;101736.88;4972389;28;45356;-42
2022/03/10 06:35:46;;;;;;;;;40.75;33.00;;;;;8.08;55.68;101730.19;4973188;28;45343;-42
2022/03/10 06:38:12;;;;;;;;;33.75;28.25;;;;;8.13;55.81;101745.75;4973280;28;45591;-44
2022/03/10 06:40:37;;;;;;;;;42.75;30.75;;;;;8.12;55.14;101742.25;4973498;28;45829;-42
2022/03/10 06:43:03;;;;;;;;;35.25;31.75;;;;;8.14;55.13;101736.88;4973365;28;45310;-42
2022/03/10 06:45:29;;;;;;;;;45.75;33.00;;;;;8.19;54.53;101738.25;4973851;28;47109;-43
2022/03/10 06:47:54;;;;;;;;;40.75;31.75;;;;;8.19;55.67;101734.75;4976185;28;45366;-42
2022/03/10 06:50:20;;;;;;;;;38.75;32.00;;;;;8.20;56.04;101742.59;5021012;28;45474;-42
2022/03/10 06:52:45;;;;;;;;;28.25;25.50;;;;;8.21;56.17;101735.47;5074057;27;45456;-42
2022/03/10 06:55:11;;;;;;;;;38.25;34.00;;;;;8.21;55.79;101741.63;4975200;28;47166;-43
2022/03/10 06:57:36;;;;;;;;;44.75;39.00;;;;;8.25;56.40;101740.44;5014210;28;45394;-42
2022/03/10 07:00:04;;;;;;;;;43.25;35.50;;;;;8.28;55.90;101750.00;5060474;27;45492;-43
2022/03/10 07:02:30;;;;;;;;;40.25;35.25;;;;;8.32;55.77;101748.84;4975780;28;45428;-43
2022/03/10 07:04:56;;;;;;;;;43.00;38.00;;;;;8.29;56.00;101742.91;4974232;28;46183;-44
2022/03/10 07:07:22;;;;;;;;;46.25;37.50;;;;;8.20;56.28;101726.69;4974716;28;45723;-44
2022/03/10 07:09:47;;;;;;;;;38.00;34.00;;;;;8.27;55.04;101743.00;4974986;28;45397;-43
2022/03/10 07:12:12;;;;;;;;;41.25;37.25;;;;;8.34;55.62;101746.91;4975647;28;45306;-43
2022/03/10 07:14:38;;;;;;;;;37.50;30.00;;;;;8.38;55.07;101742.28;4975001;28;46346;-42
2022/03/10 07:17:04;;;;;;;;;40.75;30.50;;;;;8.42;55.61;101752.56;4975451;28;45406;-43
2022/03/10 07:19:29;;;;;;;;;47.75;36.75;;;;;8.46;55.63;101755.84;4975644;28;45845;-44
2022/03/10 07:21:54;;;;;;;;;37.75;32.75;;;;;8.48;54.92;101759.25;4975686;28;45454;-45
2022/03/10 07:24:20;;;;;;;;;43.75;34.50;;;;;8.47;55.84;101757.56;4975388;28;45511;-44
2022/03/10 07:26:46;;;;;;;;;20.00;13.75;;;;;8.49;55.77;101755.63;4975404;28;45395;-43
2022/03/10 07:29:11;;;;;;;;;42.25;32.00;;;;;8.54;55.38;101768.56;4974438;28;45376;-43
2022/03/10 07:31:36;;;;;;;;;45.75;35.00;;;;;8.59;55.27;101767.28;4992814;28;45477;-42
2022/03/10 07:34:02;;;;;;;;;48.25;37.00;;;;;8.64;54.60;101770.47;4975039;28;45414;-45
2022/03/10 07:36:28;;;;;;;;;39.50;31.00;;;;;8.65;55.12;101771.31;4975125;28;45288;-42
2022/03/10 07:38:54;;;;;;;;;41.25;32.25;;;;;8.69;55.41;101767.50;4974681;28;45487;-43
2022/03/10 07:41:19;;;;;;;;;49.00;33.50;;;;;8.74;54.83;101763.53;5020934;28;45453;-44
2022/03/10 07:43:45;;;;;;;;;54.25;32.50;;;;;8.79;54.66;101770.31;4972322;27;45996;-44
2022/03/10 07:46:10;;;;;;;;;28.25;26.25;;;;;8.85;55.24;101765.44;4955141;28;45677;-43
2022/03/10 07:48:36;;;;;;;;;44.00;37.75;;;;;8.92;54.53;101768.47;4955167;28;45395;-41
2022/03/10 07:51:01;;;;;;;;;36.25;30.25;;;;;8.98;54.72;101762.75;4955083;28;45364;-43
2022/03/10 07:53:27;;;;;;;;;41.00;32.25;;;;;9.02;53.97;101771.31;4955210;28;45942;-44
2022/03/10 07:55:55;;;;;;;;;33.50;29.50;;;;;9.02;54.16;101763.34;4954786;28;45430;-43
2022/03/10 07:58:25;;;;;;;;;43.50;34.75;;;;;9.02;54.62;101764.22;4954234;28;45295;-44
2022/03/10 08:00:54;;;;;;;;;37.75;32.50;;;;;9.06;54.23;101768.34;4955467;28;45315;-44
2022/03/10 08:03:21;;;;;;;;;43.50;38.50;;;;;9.09;54.38;101765.44;4955079;28;45354;-43
2022/03/10 08:05:47;;;;;;;;;53.25;34.25;;;;;9.14;54.52;101773.06;4954802;28;45334;-41
2022/03/10 08:08:13;;;;;;;;;36.75;29.75;;;;;9.16;53.71;101771.16;4955054;28;45275;-41
2022/03/10 08:10:39;;;;;;;;;39.25;25.75;;;;;9.18;53.90;101767.41;4955248;28;45392;-42
2022/03/10 08:13:05;;;;;;;;;41.50;33.75;;;;;9.20;53.72;101770.81;4954646;28;45414;-42
2022/03/10 08:15:30;;;;;;;;;43.00;32.50;;;;;9.23;54.30;101772.41;4954722;28;45392;-43
2022/03/10 08:17:55;;;;;;;;;45.25;37.00;;;;;9.27;54.65;101773.00;4954806;28;45398;-43
2022/03/10 08:20:21;;;;;;;;;43.25;34.75;;;;;9.31;54.63;101771.84;4955045;28;45508;-42
2022/03/10 08:22:46;;;;;;;;;44.75;33.50;;;;;9.39;53.80;101764.16;4954760;28;45383;-42
2022/03/10 08:25:12;;;;;;;;;38.50;33.50;;;;;9.51;54.04;101765.88;4953342;28;45427;-44
2022/03/10 08:27:38;;;;;;;;;40.25;30.75;;;;;9.62;53.55;101768.59;4955045;28;45385;-43
2022/03/10 08:30:04;;;;;;;;;39.00;29.50;;;;;9.78;53.38;101757.66;4955015;28;45362;-44
2022/03/10 08:32:30;;;;;;;;;38.50;33.75;;;;;11.23;51.46;101759.47;4954997;28;45386;-45
2022/03/10 08:34:55;;;;;;;;;40.00;32.00;;;;;12.89;47.34;101759.50;4954996;28;45403;-44
2022/03/10 08:37:21;;;;;;;;;43.25;35.00;;;;;14.58;44.06;101747.38;4954923;28;45382;-45
2022/03/10 08:39:46;;;;;;;;;41.25;29.75;;;;;15.48;41.69;101745.66;4955457;28;45355;-45
2022/03/10 08:42:12;;;;;;;;;37.75;31.00;;;;;16.61;39.99;101739.34;4955366;28;46253;-42
2022/03/10 08:44:37;;;;;;;;;33.33;27.33;;;;;17.71;38.41;101737.38;4954898;28;45285;-43
2022/03/10 08:47:03;;;;;;;;;34.33;29.67;;;;;18.04;37.08;101732.00;4955129;28;45363;-44
2022/03/10 08:49:29;;;;;;;;;33.33;30.33;;;;;17.92;36.89;101729.66;4955368;28;45294;-43
2022/03/10 08:51:55;;;;;;;;;31.33;28.33;;;;;17.59;37.25;101725.28;4955130;28;46305;-44
2022/03/10 08:54:21;;;;;;;;;39.00;30.33;;;;;17.36;38.15;101727.78;4955033;28;45436;-44
2022/03/10 08:56:46;;;;;;;;;37.67;29.00;;;;;17.44;37.06;101720.59;4954872;28;45323;-43
2022/03/10 08:59:11;;;;;;;;;32.67;26.00;;;;;17.64;37.09;101725.59;4955144;28;45538;-41
2022/03/10 09:01:38;;;;;;;;;32.33;23.67;;;;;17.69;37.20;101724.09;4954865;28;45390;-42
2022/03/10 09:04:03;;;;;;;;;31.67;23.33;;;;;17.83;36.06;101721.78;4954871;28;45444;-42
2022/03/10 09:06:29;;;;;;;;;31.33;27.00;;;;;18.20;35.96;101718.47;4955053;28;45421;-44
2022/03/10 09:08:55;;;;;;;;;32.33;28.00;;;;;19.04;34.45;101725.00;4954391;28;45458;-41
2022/03/10 09:11:20;;;;;;;;;27.67;21.33;;;;;20.36;33.36;101726.38;4955776;28;45465;-43
2022/03/10 09:13:48;;;;;;;;;30.67;28.67;;;;;21.48;30.96;101725.19;4954910;28;45425;-42
2022/03/10 09:16:18;;;;;;;;;29.33;26.00;;;;;22.40;30.13;101720.44;4954797;28;45220;-43
2022/03/10 09:18:45;;;;;;;;;32.67;25.33;;;;;23.27;28.23;101713.44;4954959;28;45399;-44
2022/03/10 09:21:14;;;;;;;;;32.50;29.00;;;;;23.78;27.44;101714.72;4954610;28;47140;-43
2022/03/10 09:23:39;;;;;;;;;27.67;24.67;;;;;24.27;26.79;101716.94;4954577;28;45467;-44
2022/03/10 09:26:05;;;;;;;;;31.33;28.00;;;;;24.84;26.44;101704.34;4954960;28;45304;-46
2022/03/10 09:28:30;;;;;;;;;31.67;28.33;;;;;25.54;25.64;101711.66;4954980;28;45315;-45
2022/03/10 09:30:56;;;;;;;;;27.33;25.00;;;;;25.85;24.88;101708.06;4954283;28;46144;-43
2022/03/10 09:33:21;;;;;;;;;32.67;24.33;;;;;26.27;24.57;101703.59;4954572;28;45274;-43
2022/03/10 09:35:47;;;;;;;;;31.33;25.33;;;;;26.87;24.44;101708.31;4954759;28;45683;-45
2022/03/10 09:38:12;;;;;;;;;31.67;27.33;;;;;27.09;23.73;101700.44;4955017;28;45883;-46
2022/03/10 09:40:38;;;;;;;;;30.00;26.33;;;;;27.45;22.57;101713.16;4954329;28;45420;-47
2022/03/10 09:43:03;;;;;;;;;31.50;24.50;;;;;27.61;22.79;101696.06;4954043;28;45388;-45
2022/03/10 09:45:30;;;;;;;;;27.50;27.25;;;;;27.72;22.27;101701.75;4954412;28;45316;-43
2022/03/10 09:47:56;;;;;;;;;25.50;23.00;;;;;27.80;22.04;101702.25;4954641;28;45319;-43
2022/03/10 09:50:21;;;;;;;;;28.50;26.25;;;;;27.72;22.58;101704.47;4954141;28;47169;-44
2022/03/10 09:52:47;;;;;;;;;27.50;23.25;;;;;28.11;22.24;101705.69;4954461;28;45718;-47
2022/03/10 09:55:16;;;;;;;;;26.50;23.50;;;;;28.08;22.35;101700.69;4954025;28;45456;-44
2022/03/10 09:57:43;;;;;;;;;27.50;22.75;;;;;28.32;21.83;101701.50;4954528;28;45307;-45
2022/03/10 10:00:10;;;;;;;;;31.00;22.75;;;;;28.63;21.53;101694.75;4953958;28;47104;-47
2022/03/10 10:02:40;;;;;;;;;24.75;22.75;;;;;28.97;21.27;101700.34;4954125;28;45356;-43
2022/03/10 10:05:23;;;;;;;;;26.50;26.00;;;;;29.34;22.31;101687.00;4954387;28;45345;-43
2022/03/10 10:08:02;;;;;;;;;25.25;23.25;;;;;29.58;20.81;101698.66;4954382;28;45833;-46
2022/03/10 10:10:28;;;;;;;;;23.00;22.50;;;;;29.62;21.17;101696.22;4953678;28;46143;-45
2022/03/10 10:12:54;;;;;;;;;28.40;22.00;;;;;29.48;20.68;101685.59;4953935;28;45467;-43
2022/03/10 10:15:19;;;;;;;;;23.00;19.25;;;;;29.27;21.36;101689.91;4954239;28;45401;-44
2022/03/10 10:17:45;;;;;;;;;17.00;17.00;;;;;28.97;23.25;101682.00;4954180;28;45458;-44
2022/03/10 10:20:10;;;;;;;;;32.75;22.75;;;;;28.45;22.51;101675.78;4954207;28;46271;-45
2022/03/10 10:22:36;;;;;;;;;25.50;21.75;;;;;28.19;21.98;101674.38;4956881;28;45217;-44
2022/03/10 10:25:05;;;;;;;;;27.25;22.50;;;;;27.84;23.10;101675.28;4956837;28;45418;-43
2022/03/10 10:27:32;;;;;;;;;23.75;22.50;;;;;27.34;22.79;101664.75;4957054;28;45496;-44
2022/03/10 10:30:00;;;;;;;;;16.80;16.80;;;;;27.18;23.68;101676.38;4956733;28;46279;-46
2022/03/10 10:32:44;;;;;;;;;23.20;17.00;;;;;26.84;24.22;101668.69;4956674;28;45356;-42
2022/03/10 10:35:20;;;;;;;;;26.00;22.80;;;;;26.50;23.76;101664.72;4957020;28;45462;-43
2022/03/10 10:37:49;;;;;;;;;23.25;21.25;;;;;26.37;27.25;101662.16;4957209;28;45317;-44
2022/03/10 10:40:23;;;;;;;;;20.00;18.20;;;;;26.41;24.69;101657.91;4956636;28;46008;-43
2022/03/10 10:42:50;;;;;;;;;17.80;17.60;;;;;26.60;24.99;101654.13;4957795;28;45383;-43
2022/03/10 10:45:30;;;;;;;;;25.20;21.40;;;;;26.61;24.81;101644.84;4956868;28;45473;-45
2022/03/10 10:48:08;;;;;;;;;20.75;19.25;;;;;26.53;24.21;101634.25;4956946;28;45561;-44
2022/03/10 10:50:36;;;;;;;;;24.25;18.25;;;;;27.04;24.03;101635.59;4956346;28;47126;-41
2022/03/10 10:53:03;;;;;;;;;18.60;12.00;;;;;27.76;24.86;101637.34;4956342;28;45386;-42
2022/03/10 10:55:37;;;;;;;;;21.20;18.60;;;;;28.88;22.33;101630.59;4956616;28;45371;-43
2022/03/10 10:58:13;;;;;;;;;24.75;18.75;;;;;31.15;20.35;101632.22;4956651;28;45541;-46
2022/03/10 11:00:47;;;;;;;;;16.60;14.00;;;;;33.03;18.50;101616.50;4956474;28;45483;-44
2022/03/10 11:03:21;;;;;;;;;10.40;10.20;;;;;34.62;17.03;101616.00;4956637;28;45394;-45
2022/03/10 11:05:48;;;;;;;;;17.60;14.00;;;;;35.78;17.13;101606.88;4956715;28;45462;-43
2022/03/10 11:08:15;;;;;;;;;16.20;13.20;;;;;36.48;15.59;101609.88;4956591;28;45418;-44
2022/03/10 11:10:42;;;;;;;;;15.80;13.00;;;;;37.00;15.37;101607.09;4956363;28;46029;-44
2022/03/10 11:13:07;;;;;;;;;15.00;13.80;;;;;37.58;14.20;101617.72;4956171;28;45647;-44
2022/03/10 11:15:33;;;;;;;;;16.75;14.50;;;;;37.75;14.57;101601.25;4956332;28;45335;-46